createdAt,value
2018-03-06T00:01:25.291Z,13.57
2018-03-06T00:06:19.992Z,14.23
2018-03-06T00:11:14.704Z,16.97
2018-03-06T00:16:09.223Z,16.90
2018-03-06T00:21:03.733Z,16.83
2018-03-06T00:25:58.453Z,14.33
2018-03-06T00:30:53.530Z,16.47
2018-03-06T00:35:48.396Z,16.47
2018-03-06T00:40:43.263Z,14.37
2018-03-06T00:45:37.743Z,14.80
2018-03-06T00:50:33.336Z,15.57
2018-03-06T00:55:27.677Z,15.03
2018-03-06T01:00:25.210Z,15.53
2018-03-06T01:05:19.739Z,14.13
2018-03-06T01:10:14.269Z,18.30
2018-03-06T01:15:09.584Z,18.70
2018-03-06T01:20:04.280Z,17.60
2018-03-06T01:25:00.296Z,18.47
2018-03-06T01:29:54.931Z,20.07
2018-03-06T01:34:49.439Z,20.07
2018-03-06T01:39:44.712Z,18.70
2018-03-06T01:44:39.372Z,20.97
2018-03-06T01:49:33.943Z,21.90
2018-03-06T01:54:29.200Z,20.13
2018-03-06T01:59:23.705Z,18.93
2018-03-06T02:04:18.197Z,22.07
2018-03-06T02:09:12.839Z,24.87
2018-03-06T02:14:08.148Z,24.67
2018-03-06T02:19:03.432Z,23.07
2018-03-06T02:23:57.952Z,22.50
2018-03-06T02:28:54.675Z,24.53
2018-03-06T02:33:49.185Z,22.70
2018-03-06T02:38:43.700Z,24.90
2018-03-06T02:43:38.264Z,24.07
2018-03-06T02:48:33.537Z,22.93
2018-03-06T02:53:28.054Z,26.13
2018-03-06T02:58:22.604Z,21.30
2018-03-06T03:03:17.857Z,22.83
2018-03-06T03:08:12.371Z,24.53
2018-03-06T03:13:06.890Z,25.57
2018-03-06T03:18:01.382Z,24.40
2018-03-06T03:22:55.878Z,25.67
2018-03-06T03:27:50.511Z,26.70
2018-03-06T03:32:45.035Z,25.20
2018-03-06T03:37:39.635Z,24.30
2018-03-06T03:42:34.153Z,27.50
2018-03-06T03:47:28.656Z,25.23
2018-03-06T03:52:23.157Z,26.30
2018-03-06T03:57:17.848Z,29.17
2018-03-06T04:02:12.339Z,33.43
2018-03-06T04:07:07.405Z,24.73
2018-03-06T04:12:01.940Z,28.70
2018-03-06T04:16:57.225Z,25.90
2018-03-06T04:21:51.824Z,28.53
2018-03-06T04:26:46.312Z,28.10
2018-03-06T04:31:40.846Z,31.57
2018-03-06T04:36:35.360Z,28.93
2018-03-06T04:41:32.785Z,26.87
2018-03-06T04:46:27.280Z,30.07
2018-03-06T04:51:22.000Z,29.17
2018-03-06T04:56:16.507Z,29.93
2018-03-06T05:01:11.010Z,31.27
2018-03-06T05:06:05.630Z,31.50
2018-03-06T05:11:00.271Z,31.37
2018-03-06T05:15:55.207Z,29.17
2018-03-06T05:20:50.477Z,32.60
2018-03-06T05:25:45.236Z,38.53
2018-03-06T05:30:39.710Z,35.03
2018-03-06T05:35:34.215Z,33.73
2018-03-06T05:40:29.431Z,32.17
2018-03-06T05:45:24.213Z,38.03
2018-03-06T05:50:19.897Z,35.83
2018-03-06T05:55:15.190Z,40.47
2018-03-06T06:00:10.639Z,33.37
2018-03-06T06:05:04.463Z,32.53
2018-03-06T06:09:59.728Z,30.73
2018-03-06T06:14:54.226Z,35.93
2018-03-06T06:19:50.425Z,35.73
2018-03-06T06:24:45.531Z,34.80
2018-03-06T06:29:40.066Z,39.57
2018-03-06T06:34:34.394Z,34.43
2018-03-06T06:39:30.782Z,38.17
2018-03-06T06:44:25.296Z,39.87
2018-03-06T06:49:19.676Z,41.50
2018-03-06T06:54:14.407Z,39.47
2018-03-06T06:59:08.712Z,39.70
2018-03-06T07:04:03.005Z,43.67
2018-03-06T07:08:57.315Z,36.37
2018-03-06T07:13:52.932Z,38.57
2018-03-06T07:18:47.246Z,37.93
2018-03-06T07:23:41.596Z,42.50
2018-03-06T07:28:35.957Z,41.23
2018-03-06T07:33:31.031Z,43.67
2018-03-06T07:38:26.729Z,40.77
2018-03-06T07:43:21.060Z,39.30
2018-03-06T07:48:15.402Z,43.73
2018-03-06T07:53:09.693Z,47.40
2018-03-06T07:58:04.011Z,45.77
2018-03-06T08:02:59.168Z,43.33
2018-03-06T08:07:53.488Z,44.40
2018-03-06T08:12:47.957Z,44.40
2018-03-06T08:17:43.283Z,46.47
2018-03-06T08:22:38.392Z,40.90
2018-03-06T08:27:33.475Z,44.13
2018-03-06T08:32:27.805Z,43.67
2018-03-06T08:37:22.890Z,41.50
2018-03-06T08:42:17.194Z,41.97
2018-03-06T08:47:11.651Z,41.43
2018-03-06T08:52:06.025Z,38.80
2018-03-06T08:57:01.129Z,38.13
2018-03-06T09:01:55.477Z,37.67
2018-03-06T09:06:49.875Z,38.20
2018-03-06T09:11:44.962Z,35.77
2018-03-06T09:16:39.383Z,37.97
2018-03-06T09:21:34.649Z,34.80
2018-03-06T09:26:28.977Z,34.43
2018-03-06T09:31:23.308Z,32.83
2018-03-06T09:36:18.498Z,36.47
2018-03-06T09:41:12.875Z,38.53
2018-03-06T09:46:07.189Z,36.63
2018-03-06T09:51:01.522Z,35.93
2018-03-06T09:55:56.051Z,32.67
2018-03-06T10:00:51.144Z,33.43
2018-03-06T10:05:45.483Z,39.07
2018-03-06T10:10:39.832Z,35.30
2018-03-06T10:15:34.156Z,41.93
2018-03-06T10:20:28.489Z,37.07
2018-03-06T10:25:22.946Z,37.00
2018-03-06T10:30:17.267Z,46.10
2018-03-06T10:35:12.341Z,37.63
2018-03-06T10:40:06.742Z,40.43
2018-03-06T10:45:01.182Z,38.70
2018-03-06T10:49:55.597Z,44.67
2018-03-06T10:54:50.700Z,43.07
2018-03-06T10:59:45.052Z,40.10
2018-03-06T11:04:39.376Z,44.13
2018-03-06T11:09:33.810Z,40.63
2018-03-06T11:14:28.226Z,43.80
2018-03-06T11:19:22.687Z,38.43
2018-03-06T11:24:17.017Z,44.90
2018-03-06T11:29:11.329Z,33.43
2018-03-06T11:34:05.728Z,34.27
2018-03-06T11:39:00.056Z,36.47
2018-03-06T11:43:55.666Z,37.17
2018-03-06T11:48:52.254Z,39.17
2018-03-06T11:53:46.579Z,34.23
2018-03-06T11:58:40.903Z,32.17
2018-03-06T12:03:35.213Z,31.07
2018-03-06T12:08:29.604Z,32.10
2018-03-06T12:13:23.980Z,30.43
2018-03-06T12:18:18.765Z,32.30
2018-03-06T12:23:13.874Z,32.73
2018-03-06T12:28:08.955Z,31.53
2018-03-06T12:33:03.107Z,28.83
2018-03-06T12:37:57.430Z,31.70
2018-03-06T12:42:51.775Z,36.07
2018-03-06T12:47:46.317Z,30.10
2018-03-06T12:52:40.645Z,32.17
2018-03-06T12:57:35.026Z,29.63
2018-03-06T13:02:29.346Z,30.20
2018-03-06T13:07:23.674Z,29.43
2018-03-06T13:12:17.983Z,27.20
2018-03-06T13:17:12.472Z,33.37
2018-03-06T13:22:07.460Z,26.10
2018-03-06T13:27:01.769Z,29.17
2018-03-06T13:31:56.170Z,27.47
2018-03-06T13:36:50.497Z,26.43
2018-03-06T13:41:44.844Z,26.67
2018-03-06T13:46:39.178Z,24.77
2018-03-06T13:51:33.528Z,25.10
2018-03-06T13:56:28.610Z,25.43
2018-03-06T14:01:23.105Z,26.50
2018-03-06T14:06:17.689Z,20.40
2018-03-06T14:11:12.059Z,21.77
2018-03-06T14:16:07.269Z,20.17
2018-03-06T14:21:01.584Z,17.10
2018-03-06T14:25:56.701Z,19.37
2018-03-06T14:30:51.730Z,18.17
2018-03-06T14:35:46.809Z,19.27
2018-03-06T14:40:41.105Z,17.87
2018-03-06T14:45:35.440Z,14.47
2018-03-06T14:50:30.200Z,20.30
2018-03-06T14:55:24.342Z,16.77
2018-03-06T15:00:18.880Z,15.50
2018-03-06T15:05:13.189Z,15.70
2018-03-06T15:10:07.518Z,17.23
2018-03-06T15:15:01.883Z,16.80
2018-03-06T15:19:56.538Z,17.00
2018-03-06T15:24:51.129Z,19.77
2018-03-06T15:29:45.460Z,16.90
2018-03-06T15:34:39.840Z,14.87
2018-03-06T15:39:35.141Z,16.47
2018-03-06T15:44:29.495Z,14.63
2018-03-06T15:49:23.859Z,15.43
2018-03-06T15:54:19.122Z,17.30
2018-03-06T15:59:13.677Z,15.37
2018-03-06T16:04:08.100Z,17.23
2018-03-06T16:09:02.685Z,16.30
2018-03-06T16:13:57.209Z,13.67
2018-03-06T16:18:51.625Z,13.53
2018-03-06T16:23:45.968Z,12.83
2018-03-06T16:28:41.126Z,13.37
2018-03-06T16:33:35.482Z,14.17
2018-03-06T16:38:29.838Z,17.10
2018-03-06T16:43:24.310Z,20.60
2018-03-06T16:48:19.528Z,15.67
2018-03-06T16:53:14.625Z,18.87
2018-03-06T16:58:09.131Z,19.17
2018-03-06T17:03:04.538Z,22.03
2018-03-06T17:07:59.662Z,17.53
2018-03-06T17:12:54.430Z,21.40
2018-03-06T17:17:48.553Z,19.37
2018-03-06T17:22:43.212Z,20.80
2018-03-06T17:27:38.561Z,18.07
2018-03-06T17:32:33.229Z,20.30
2018-03-06T17:37:27.619Z,15.17
2018-03-06T17:42:22.142Z,15.37
2018-03-06T17:47:17.457Z,11.83
2018-03-06T17:52:11.981Z,13.23
2018-03-06T17:57:07.469Z,12.33
2018-03-06T18:02:01.986Z,11.67
2018-03-06T18:06:56.537Z,13.67
2018-03-06T18:11:52.562Z,11.23
2018-03-06T18:16:48.950Z,11.53
2018-03-06T18:21:43.378Z,13.10
2018-03-06T18:26:37.875Z,14.07
2018-03-06T18:31:32.362Z,10.53
2018-03-06T18:36:26.866Z,11.80
2018-03-06T18:41:21.226Z,12.83
2018-03-06T18:46:15.606Z,13.43
2018-03-06T18:51:14.191Z,11.40
2018-03-06T18:56:08.719Z,11.57
2018-03-06T19:17:04.444Z,12.33
2018-03-06T19:21:59.055Z,13.83
2018-03-06T19:26:54.988Z,13.97
2018-03-06T19:31:50.113Z,16.03
2018-03-06T19:36:45.761Z,13.53
2018-03-06T19:41:40.547Z,14.10
2018-03-06T19:46:35.203Z,18.87
2018-03-06T19:51:30.567Z,16.90
2018-03-06T19:56:24.937Z,15.93
2018-03-06T20:01:19.481Z,15.33
2018-03-06T20:06:14.139Z,19.63
2018-03-06T20:11:08.543Z,16.00
2018-03-06T20:16:04.009Z,15.80
2018-03-06T20:20:58.481Z,14.73
2018-03-06T20:25:58.450Z,17.97
2018-03-06T20:30:58.266Z,16.47
2018-03-06T20:35:52.697Z,12.67
2018-03-06T20:40:47.674Z,13.20
2018-03-06T20:45:48.588Z,11.97
2018-03-06T20:50:43.135Z,13.83
2018-03-06T20:55:38.331Z,15.77
2018-03-06T21:00:32.688Z,15.43
2018-03-06T21:05:27.064Z,14.73
2018-03-06T21:10:22.376Z,15.43
2018-03-06T21:15:17.454Z,15.17
2018-03-06T21:20:12.390Z,14.37
2018-03-06T21:25:07.467Z,15.30
2018-03-06T21:30:01.998Z,16.17
2018-03-06T21:34:56.495Z,18.37
2018-03-06T21:39:51.136Z,16.30
2018-03-06T21:44:45.547Z,17.50
2018-03-06T21:49:40.234Z,18.53
2018-03-06T21:54:34.539Z,16.77
2018-03-06T21:59:28.945Z,16.10
2018-03-06T22:04:23.334Z,16.43
2018-03-06T22:09:17.736Z,19.77
2018-03-06T22:14:12.102Z,17.90
2018-03-06T22:19:07.506Z,21.90
2018-03-06T22:24:01.973Z,19.70
2018-03-06T22:28:56.670Z,19.23
2018-03-06T22:33:50.904Z,22.93
2018-03-06T22:38:45.328Z,20.10
2018-03-06T22:43:40.353Z,19.80
2018-03-06T22:48:34.877Z,24.13
2018-03-06T22:53:29.178Z,19.97
2018-03-06T22:58:23.510Z,20.50
2018-03-06T23:03:17.940Z,20.73
2018-03-06T23:08:12.321Z,23.27
2018-03-06T23:13:08.901Z,19.30
2018-03-06T23:18:03.220Z,19.37
2018-03-06T23:22:59.348Z,18.73
2018-03-06T23:27:54.515Z,18.67
2018-03-06T23:32:48.900Z,21.97
2018-03-06T23:37:44.085Z,21.37
2018-03-06T23:42:38.481Z,23.83
2018-03-06T23:47:33.167Z,21.57
2018-03-06T23:52:27.545Z,20.30
2018-03-06T23:57:21.870Z,20.00
